Latest Weather Observations for Barimunya

IDW60801

Issued at 1:35 pm WST Sunday 23 November 2014 (issued every 30 minutes, with the page automatically refreshed every 10 minutes)

About weather observations | Map of weather stations | Latest weather observations for WA | Other Formats
Station Details ID: 505053 Name: BARIMUNYA Lat: -22.67 Lon: 119.16 Height: 629.17 m
Data from the previous 72 hours. | See also: Recent months for locations in Western Australia
Date/Time
WST
Temp
°C
App
Temp
°C
Dew
Point
Rel
Hum
%
Delta-T
°C
Wind Press
QNH
hPa
Press
MSL
hPa
Rain
since 9 am
mm
Dir
 
Spd
km/h
Gust
km/h
Spd
kts
Gust
kts
23/01:30pm 36.1 32.2 3.3 13 17.7 N 13 24 7 13 1011.7 1006.9 0.0
23/01:00pm 35.0 30.2 2.5 13 17.2 N 17 28 9 15 1011.9 1007.1 0.0
23/12:30pm 35.9 30.3 0.9 11 18.1 NNW 20 30 11 16 1012.4 1007.5 0.0
23/12:00pm 35.8 29.9 2.0 12 17.8 NNW 22 33 12 18 1012.8 1007.9 0.0
23/11:30am 35.3 30.1 0.4 11 17.9 NNW 17 26 9 14 1013.0 1008.2 0.0
23/11:00am 34.9 31.4 1.3 12 17.4 NNW 9 17 5 9 1013.2 1008.4 0.0
23/10:30am 34.0 29.6 0.6 12 17.0 W 13 24 7 13 1013.5 1008.7 0.0
23/10:00am 33.6 29.5 2.4 14 16.3 NW 13 20 7 11 1013.8 1009.0 0.0
23/09:30am 32.2 29.2 2.3 15 15.5 W 7 15 4 8 1014.1 1009.2 0.0
23/09:00am 31.6 28.3 2.7 16 15.0 SSE 9 20 5 11 1014.3 1009.4 -
23/08:30am 30.8 27.2 2.9 17 14.5 S 11 19 6 10 1014.2 1009.3 -
23/08:00am 29.7 24.6 2.9 18 13.8 S 19 26 10 14 1014.2 1009.3 -
23/07:30am 29.5 24.7 2.7 18 13.8 S 17 24 9 13 1014.1 1009.2 -
23/07:00am 28.6 24.1 2.0 18 13.4 S 15 20 8 11 1014.0 1009.1 -
23/06:30am 27.8 24.2 2.8 20 12.7 S 11 17 6 9 1013.5 1008.7 -
23/06:00am 27.2 23.6 3.0 21 12.3 S 11 15 6 8 1013.1 1008.3 -
23/05:30am 26.9 23.4 3.4 22 12.0 S 11 13 6 7 1012.7 1007.8 -
23/05:00am 26.3 23.7 4.1 24 11.5 SW 7 9 4 5 1012.4 1007.5 -
23/04:30am 26.5 24.0 3.7 23 11.7 SSW 6 7 3 4 1012.0 1007.2 -
23/04:00am 26.6 23.9 3.8 23 11.7 SW 7 9 4 5 1011.7 1006.9 -
23/03:30am 26.9 24.3 4.0 23 11.8 SW 7 9 4 5 1011.8 1007.0 -
23/03:00am 27.6 24.4 3.3 21 12.5 WSW 9 11 5 6 1011.6 1006.8 0.0
23/02:30am 28.0 25.6 4.3 22 12.4 WSW 6 9 3 5 1011.6 1006.8 -
23/02:00am 28.4 25.4 4.0 21 12.7 WSW 9 13 5 7 1011.5 1006.7 -
23/01:30am 28.4 25.0 4.0 21 12.7 SW 11 13 6 7 1011.5 1006.7 -
23/01:00am 28.6 26.1 6.7 25 12.0 WSW 9 13 5 7 1011.8 1007.0 -
23/12:30am 28.8 26.4 8.5 28 11.4 WSW 11 17 6 9 1011.9 1007.1 -
23/12:00am 28.7 26.4 8.9 29 11.2 W 11 15 6 8 1012.4 1007.5 -
 
Date/Time
WST
Temp
°C
App
Temp
°C
Dew
Point
Rel
Hum
%
Delta-T
°C
Wind Press
QNH
hPa
Press
MSL
hPa
Rain
since 9 am
mm
Dir
 
Spd
km/h
Gust
km/h
Spd
kts
Gust
kts
22/11:30pm 29.2 26.5 8.8 28 11.6 W 13 17 7 9 1012.5 1007.6 -
22/11:00pm 29.0 27.1 9.2 29 11.3 WNW 9 11 5 6 1012.7 1007.8 -
22/10:30pm 29.6 27.7 9.2 28 11.7 NW 9 15 5 8 1012.8 1007.9 -
22/10:00pm 30.5 26.4 8.8 26 12.4 NNW 20 32 11 17 1012.9 1008.0 -
22/09:30pm 30.9 26.3 8.0 24 12.9 NNW 22 39 12 21 1012.8 1007.9 -
22/09:00pm 31.3 26.7 6.4 21 13.7 N 20 30 11 16 1012.7 1007.8 0.0
22/08:30pm 32.0 25.5 4.7 18 14.7 N 28 39 15 21 1012.1 1007.3 -
22/08:00pm 32.7 25.9 5.3 18 15.0 N 30 43 16 23 1011.7 1006.9 -
22/07:46pm 33.1 26.2 4.8 17 15.4 N 30 48 16 26 1011.6 1006.8 -
22/07:30pm 33.4 27.4 3.3 15 16.0 N 24 37 13 20 1011.4 1006.5 -
22/07:00pm 34.1 28.2 1.8 13 16.8 N 22 30 12 16 1011.1 1006.2 -
22/06:30pm 35.0 27.9 1.4 12 17.5 N 28 41 15 22 1010.6 1005.7 -
22/06:00pm 35.7 29.6 0.7 11 18.1 N 22 32 12 17 1010.3 1005.5 -
22/05:30pm 36.7 30.9 0.1 10 18.8 NNW 20 32 11 17 1010.0 1005.1 -
22/05:00pm 37.7 32.2 0.9 10 19.3 N 19 37 10 20 1009.8 1004.9 -
22/04:30pm 38.2 31.9 1.3 10 19.5 NW 24 39 13 21 1009.7 1004.8 -
22/04:00pm 37.4 31.0 0.7 10 19.1 N 24 35 13 19 1009.8 1004.9 -
22/03:30pm 37.9 30.7 1.0 10 19.4 NW 28 37 15 20 1010.1 1005.3 -
22/03:00pm 38.4 32.2 0.0 9 19.9 WNW 22 37 12 20 1010.2 1005.4 -
22/02:30pm 38.2 33.0 -0.2 9 19.8 NNW 17 26 9 14 1010.6 1005.7 -
22/02:00pm 38.4 32.2 0.0 9 19.9 N 22 28 12 15 1011.0 1006.1 -
22/01:30pm 37.9 31.7 -0.4 9 19.7 NNW 22 39 12 21 1011.4 1006.5 -
22/01:00pm 37.5 31.8 -0.7 9 19.5 N 19 26 10 14 1011.8 1007.0 -
22/12:30pm 37.2 30.9 -0.9 9 19.3 N 22 37 12 20 1012.1 1007.3 -
22/12:00pm 36.6 31.0 0.1 10 18.8 WNW 19 28 10 15 1012.6 1007.7 -
22/11:30am 35.9 29.9 -1.9 9 18.7 NNW 20 30 11 16 1012.9 1008.0 0.0
22/11:00am 34.2 29.3 -0.4 11 17.4 W 15 22 8 12 1013.3 1008.5 0.0
22/10:30am 33.6 30.0 0.3 12 16.9 NW 9 17 5 9 1013.5 1008.7 0.0
22/10:00am 32.8 29.6 0.8 13 16.3 W 7 15 4 8 1013.8 1009.0 0.0
22/09:30am 32.6 29.6 0.6 13 16.2 W 6 15 3 8 1013.8 1009.0 0.0
22/09:00am 31.1 27.0 -0.5 13 15.5 S 11 19 6 10 1014.0 1009.1 0.0
22/08:30am 30.1 25.2 -0.3 14 14.9 S 15 22 8 12 1014.0 1009.1 0.0
22/08:00am 29.5 24.2 -0.8 14 14.7 S 17 20 9 11 1014.1 1009.2 0.0
22/07:30am 28.6 23.3 -0.5 15 14.1 S 17 20 9 11 1014.0 1009.1 0.0
22/07:00am 28.0 22.6 -1.0 15 13.8 S 17 24 9 13 1013.7 1008.9 0.0
22/06:30am 27.0 23.0 0.7 18 12.8 S 11 15 6 8 1013.4 1008.6 0.0
22/06:00am 25.8 20.9 -0.3 18 12.4 SSW 15 17 8 9 1013.1 1008.3 0.0
22/05:30am 23.0 18.9 2.5 26 10.1 SW 13 13 7 7 1012.8 1007.9 0.0
22/05:00am 23.2 20.2 2.1 25 10.3 SW 7 9 4 5 1012.5 1007.6 0.0
22/04:30am 23.5 20.1 1.8 24 10.5 SW 9 9 5 5 1012.4 1007.5 0.0
22/04:00am 23.8 20.4 2.0 24 10.7 SW 9 9 5 5 1012.0 1007.2 0.0
22/03:30am 24.1 20.8 2.3 24 10.7 SW 9 13 5 7 1011.8 1007.0 0.0
22/03:00am 24.4 21.2 3.1 25 10.7 SW 9 9 5 5 1011.8 1007.0 0.0
22/02:30am 24.9 21.7 3.0 24 11.0 WSW 9 11 5 6 1011.8 1007.0 0.0
22/02:00am 25.1 21.9 3.1 24 11.1 WSW 9 11 5 6 1011.9 1007.1 0.0
22/01:30am 25.7 22.6 3.6 24 11.3 SW 9 11 5 6 1011.8 1007.0 0.0
22/01:00am 26.5 23.3 3.1 22 11.9 SW 9 11 5 6 1012.0 1007.2 0.0
22/12:30am 26.7 23.7 3.9 23 11.8 WSW 9 11 5 6 1012.1 1007.3 0.0
22/12:00am 27.0 24.4 4.1 23 11.9 W 7 11 4 6 1012.4 1007.5 0.0
 
Date/Time
WST
Temp
°C
App
Temp
°C
Dew
Point
Rel
Hum
%
Delta-T
°C
Wind Press
QNH
hPa
Press
MSL
hPa
Rain
since 9 am
mm
Dir
 
Spd
km/h
Gust
km/h
Spd
kts
Gust
kts
21/11:30pm 27.6 25.1 4.6 23 12.1 W 7 11 4 6 1012.5 1007.6 0.0
21/11:00pm 28.5 25.4 5.4 23 12.4 WNW 11 15 6 8 1012.5 1007.6 0.0
21/10:30pm 29.4 27.6 5.5 22 12.9 WNW 4 9 2 5 1012.6 1007.7 0.0
21/10:00pm 28.8 26.8 6.2 24 12.3 NW 6 7 3 4 1012.6 1007.7 0.0
21/09:30pm 31.2 28.0 4.9 19 14.2 WSW 11 15 6 8 1012.4 1007.5 0.0
21/09:00pm 31.5 28.3 5.1 19 14.3 WSW 11 15 6 8 1012.0 1007.2 0.0
21/08:30pm 32.8 28.7 4.6 17 15.2 SW 15 20 8 11 1011.8 1007.0 0.0
21/08:00pm 33.5 28.6 4.2 16 15.8 SSW 19 24 10 13 1011.5 1006.7 0.0
21/07:30pm 34.1 29.3 4.7 16 16.0 SSW 19 26 10 14 1011.1 1006.2 0.0
21/07:00pm 34.8 30.7 4.4 15 16.6 SSW 15 20 8 11 1010.9 1006.0 0.0
21/06:30pm 35.7 32.7 4.1 14 17.2 SW 9 13 5 7 1010.4 1005.6 0.0
21/06:00pm 36.9 33.5 4.0 13 18.0 WNW 11 17 6 9 1010.0 1005.1 0.0
21/05:30pm 37.2 33.2 3.1 12 18.4 WNW 13 20 7 11 1009.8 1004.9 0.0
21/05:00pm 38.1 33.3 2.5 11 19.2 WNW 17 24 9 13 1009.7 1004.8 0.0
21/04:30pm 38.6 32.9 2.9 11 19.4 NW 22 32 12 17 1009.7 1004.8 0.0
21/04:00pm 38.4 34.8 2.8 11 19.3 NW 11 28 6 15 1009.7 1004.8 0.0
21/03:30pm 37.9 31.7 2.4 11 19.0 NW 24 41 13 22 1009.7 1004.8 0.0
21/03:00pm 38.4 32.3 2.8 11 19.3 WNW 24 33 13 18 1010.0 1005.1 0.0
21/02:30pm 38.4 33.1 2.8 11 19.3 WNW 20 30 11 16 1010.3 1005.5 0.0
21/02:00pm 38.5 32.8 2.8 11 19.3 WSW 22 33 12 18 1010.9 1006.0 0.0
21/01:30pm 37.9 32.1 2.4 11 19.0 NNW 22 33 12 18 1011.5 1006.7 0.0
21/01:00pm 37.4 33.3 4.4 13 18.2 N 15 20 8 11 1011.8 1007.0 0.0
21/12:30pm 36.8 31.7 3.9 13 17.9 WNW 20 39 11 21 1012.4 1007.5 0.0
21/12:00pm 36.1 33.3 3.3 13 17.7 NNW 7 17 4 9 1012.7 1007.8 0.0
21/11:30am 35.6 30.3 3.0 13 17.4 NNW 20 28 11 15 1013.3 1008.5 0.0
21/11:00am 34.9 30.4 2.4 13 17.1 W 15 28 8 15 1013.7 1008.9 0.0
21/10:30am 34.4 31.0 2.0 13 16.9 W 9 19 5 10 1014.1 1009.2 0.0
21/10:00am 33.7 28.7 1.5 13 16.6 WSW 17 26 9 14 1014.5 1009.7 0.0
21/09:30am 32.5 29.1 1.6 14 15.9 SSW 9 17 5 9 1014.6 1009.8 0.0
21/09:00am 31.8 27.4 2.9 16 15.1 S 15 24 8 13 1014.5 1009.7 0.0
21/08:30am 31.1 26.6 2.3 16 14.8 S 15 24 8 13 1014.6 1009.8 0.0
21/08:00am 30.3 25.1 2.5 17 14.3 S 19 26 10 14 1014.5 1009.7 0.0
21/07:30am 29.2 25.1 2.5 18 13.6 SW 13 17 7 9 1014.5 1009.7 0.0
21/07:00am 27.8 24.1 2.1 19 12.9 SW 11 15 6 8 1014.3 1009.4 0.0
21/06:30am 26.2 22.9 2.2 21 12.0 WSW 9 13 5 7 1014.1 1009.2 0.0
21/06:00am 24.4 21.9 3.7 26 10.5 WSW 6 9 3 5 1013.8 1009.0 0.0
21/05:30am 23.5 20.4 1.2 23 10.7 WSW 7 11 4 6 1013.5 1008.7 0.0
21/05:00am 23.6 20.1 1.3 23 10.7 WSW 9 11 5 6 1013.3 1008.5 0.0
21/04:30am 24.0 20.5 1.0 22 11.1 WSW 9 13 5 7 1013.2 1008.4 0.0
21/04:00am 23.8 20.0 2.0 24 10.7 WSW 11 13 6 7 1013.0 1008.2 0.0
21/03:30am 24.3 20.5 1.9 23 11.0 WSW 11 13 6 7 1012.8 1007.9 0.0
21/03:00am 25.0 21.2 1.8 22 11.4 W 11 15 6 8 1012.7 1007.8 0.0
21/02:30am 25.1 22.3 3.1 24 11.1 W 7 11 4 6 1012.7 1007.8 0.0
21/02:00am 24.8 22.3 3.5 25 10.8 WSW 6 9 3 5 1012.7 1007.8 0.0
21/01:30am 25.6 22.5 3.5 24 11.2 W 9 11 5 6 1012.7 1007.8 0.0
21/01:00am 26.8 22.5 3.3 22 12.0 W 15 17 8 9 1012.7 1007.8 0.0
21/12:30am 25.9 22.8 5.5 27 10.8 WNW 11 13 6 7 1012.9 1008.0 0.0
21/12:00am 26.4 23.8 5.9 27 10.9 W 9 13 5 7 1013.0 1008.2 0.0
 
Date/Time
WST
Temp
°C
App
Temp
°C
Dew
Point
Rel
Hum
%
Delta-T
°C
Wind Press
QNH
hPa
Press
MSL
hPa
Rain
since 9 am
mm
Dir
 
Spd
km/h
Gust
km/h
Spd
kts
Gust
kts
20/11:30pm 28.7 25.2 5.5 23 12.4 W 13 17 7 9 1013.2 1008.4 0.0
20/11:00pm 26.7 25.8 9.1 33 9.9 WSW 4 7 2 4 1013.4 1008.6 0.0
20/10:30pm 28.2 25.6 6.3 25 11.9 SW 9 11 5 6 1013.4 1008.6 0.0
20/10:00pm 28.7 26.2 6.7 25 12.0 SW 9 11 5 6 1013.5 1008.7 0.0
20/09:30pm 29.3 27.9 8.9 28 11.6 SW 6 9 3 5 1013.4 1008.6 0.0
20/09:00pm 30.3 28.1 6.2 22 13.2 SW 7 9 4 5 1013.2 1008.4 0.0
20/08:30pm 31.7 28.8 4.5 18 14.6 SW 9 13 5 7 1012.9 1008.0 0.0
20/08:00pm 32.2 29.0 4.9 18 14.8 SW 11 15 6 8 1012.6 1007.7 0.0
20/07:30pm 32.3 29.7 4.2 17 15.0 SW 7 13 4 7 1012.3 1007.4 0.0
20/07:00pm 33.7 30.2 3.5 15 16.1 NNW 11 15 6 8 1011.7 1006.9 0.0
20/06:30pm 34.8 30.9 3.4 14 16.8 N 13 22 7 12 1011.4 1006.5 0.0
20/06:00pm 36.2 32.3 3.4 13 17.7 NNW 13 19 7 10 1011.3 1006.4 0.0
20/05:30pm 36.9 32.1 2.8 12 18.3 NNW 17 24 9 13 1011.1 1006.2 0.0
20/05:00pm 37.1 32.2 1.8 11 18.7 NW 17 20 9 11 1010.9 1006.0 0.0
20/04:30pm 37.6 32.1 2.1 11 18.9 NNW 20 26 11 14 1010.9 1006.0 0.0
20/04:00pm 37.2 31.9 3.1 12 18.4 N 20 30 11 16 1011.0 1006.1 0.0
20/03:30pm 36.8 32.4 2.8 12 18.2 NW 15 24 8 13 1011.4 1006.5 0.0
20/03:00pm 36.7 31.2 3.8 13 17.9 NW 22 35 12 19 1011.8 1007.0 0.0
20/02:30pm 36.9 31.4 4.0 13 18.0 NNW 22 30 12 16 1012.1 1007.3 0.0
20/02:00pm 37.2 32.3 4.2 13 18.1 NNW 19 22 10 12 1012.6 1007.7 0.0

Other Formats:

Comma delimited format used in spreadsheet applications
http://www.bom.gov.au/fwo/IDW60801/IDW60801.99313.axf

JavaScript Object Notation format (JSON) in row-major order
http://www.bom.gov.au/fwo/IDW60801/IDW60801.99313.json